Time;durP1;ratioP1;P1;durP2;ratioP2;P2;SDS_P1;SDS_P2;PMS_P1;PMS_P2;Temp;Humidity;BMP_temperature;BMP_pressure;BME280_temperature;BME280_humidity;BME280_pressure;Samples;Min_cycle;Max_cycle;Signal;HPM_P1;HPM_P2
2023/04/04 00:01:03;;;;;;;4.17;2.03;;;4.50;88.50;;;;;;5034216;28;20025;-75
2023/04/04 00:03:28;;;;;;;4.57;2.00;;;4.60;88.50;;;;;;5051415;28;20048;-75
2023/04/04 00:05:54;;;;;;;6.47;2.77;;;4.50;88.40;;;;;;5045149;28;20501;-75
2023/04/04 00:08:20;;;;;;;7.67;2.00;;;4.50;88.40;;;;;;5042960;28;20024;-75
2023/04/04 00:10:46;;;;;;;6.83;1.80;;;4.50;88.40;;;;;;5049855;28;20104;-75
2023/04/04 00:13:12;;;;;;;8.17;2.07;;;4.50;88.50;;;;;;5049675;28;20108;-74
2023/04/04 00:15:37;;;;;;;7.73;1.70;;;4.50;88.60;;;;;;5048560;28;20032;-75
2023/04/04 00:18:03;;;;;;;6.50;2.00;;;4.40;88.60;;;;;;5049373;28;20017;-75
2023/04/04 00:20:29;;;;;;;4.30;2.63;;;4.40;88.70;;;;;;5049681;28;20355;-75
2023/04/04 00:22:55;;;;;;;5.40;2.17;;;4.40;88.70;;;;;;5049129;28;20421;-75
2023/04/04 00:25:21;;;;;;;4.30;2.63;;;4.40;88.90;;;;;;5048337;28;20028;-75
2023/04/04 00:27:47;;;;;;;4.53;2.00;;;4.40;89.00;;;;;;5050342;28;20079;-75
2023/04/04 00:30:13;;;;;;;8.10;2.53;;;4.40;89.00;;;;;;5043699;28;20017;-75
2023/04/04 00:32:38;;;;;;;6.50;2.37;;;4.30;88.90;;;;;;5035280;28;20024;-75
2023/04/04 00:35:04;;;;;;;4.60;2.80;;;4.30;89.00;;;;;;5046637;28;20055;-75
2023/04/04 00:37:29;;;;;;;4.53;2.10;;;4.30;89.10;;;;;;5050472;28;20025;-75
2023/04/04 00:39:55;;;;;;;4.17;2.30;;;4.30;89.30;;;;;;5047631;28;20539;-75
2023/04/04 00:42:21;;;;;;;4.87;1.97;;;4.20;89.30;;;;;;5048660;28;20355;-75
2023/04/04 00:44:47;;;;;;;8.77;2.63;;;4.20;89.60;;;;;;5046627;28;20398;-75
2023/04/04 00:47:13;;;;;;;4.93;2.07;;;4.20;89.70;;;;;;5048547;28;20178;-75
2023/04/04 00:49:39;;;;;;;4.43;2.27;;;4.20;89.80;;;;;;5048647;28;20025;-76
2023/04/04 00:52:06;;;;;;;6.40;2.33;;;4.10;89.90;;;;;;5049569;28;20036;-75
2023/04/04 00:54:32;;;;;;;7.43;2.83;;;4.10;90.00;;;;;;5048820;28;20020;-75
2023/04/04 00:56:58;;;;;;;4.73;2.40;;;4.10;90.10;;;;;;5048290;28;20068;-75
2023/04/04 00:59:26;;;;;;;5.70;2.20;;;4.00;90.20;;;;;;5046921;28;20505;-76
2023/04/04 01:01:52;;;;;;;7.67;2.70;;;4.00;90.20;;;;;;5045188;28;20053;-75
2023/04/04 01:04:18;;;;;;;5.57;2.70;;;4.00;90.40;;;;;;5049118;28;20066;-75
2023/04/04 01:06:44;;;;;;;6.47;2.80;;;4.00;90.50;;;;;;5048314;28;20470;-75
2023/04/04 01:09:11;;;;;;;7.73;2.40;;;3.90;90.60;;;;;;5046922;28;20025;-75
2023/04/04 01:11:37;;;;;;;4.77;2.00;;;3.90;90.70;;;;;;5048064;28;20025;-75
2023/04/04 01:14:03;;;;;;;8.03;3.43;;;3.80;90.70;;;;;;5045902;28;20619;-75
2023/04/04 01:16:28;;;;;;;5.37;2.80;;;3.80;90.80;;;;;;5049312;28;20031;-75
2023/04/04 01:18:55;;;;;;;5.73;2.63;;;3.80;91.00;;;;;;5046620;28;20071;-75
2023/04/04 01:21:22;;;;;;;9.13;2.83;;;3.80;91.10;;;;;;5048013;28;20031;-75
2023/04/04 01:23:59;;;;;;;5.03;2.90;;;3.70;91.20;;;;;;5046644;28;20045;-75
2023/04/04 01:26:26;;;;;;;5.97;3.90;;;3.80;91.40;;;;;;5047882;28;20025;-75
2023/04/04 01:28:58;;;;;;;5.70;2.70;;;3.70;91.40;;;;;;5036710;28;20013;-76
2023/04/04 01:31:28;;;;;;;8.57;3.23;;;3.70;91.50;;;;;;5033967;28;20053;-75
2023/04/04 01:34:33;;;;;;;8.00;3.03;;;3.60;91.60;;;;;;5049736;28;20056;-75
2023/04/04 01:37:17;;;;;;;5.10;2.55;;;3.60;91.80;;;;;;5047306;28;20509;-75
2023/04/04 01:39:52;;;;;;;6.05;2.83;;;3.60;91.80;;;;;;5039106;28;20060;-75
2023/04/04 01:42:18;;;;;;;5.27;3.30;;;3.50;91.90;;;;;;5041704;28;20048;-75
2023/04/04 01:44:45;;;;;;;6.73;2.87;;;3.50;92.10;;;;;;5048683;28;20021;-75
2023/04/04 01:47:12;;;;;;;6.73;2.60;;;3.50;92.20;;;;;;5049480;28;20032;-75
2023/04/04 01:49:37;;;;;;;5.50;2.70;;;3.40;92.20;;;;;;5044690;28;20672;-75
2023/04/04 01:52:04;;;;;;;5.57;2.90;;;3.40;92.20;;;;;;5028901;28;20028;-75
2023/04/04 01:54:32;;;;;;;10.97;2.80;;;3.40;92.30;;;;;;5032551;28;20107;-75
2023/04/04 01:56:57;;;;;;;4.93;2.93;;;3.40;92.50;;;;;;5036460;28;20025;-75
2023/04/04 01:59:23;;;;;;;5.10;2.97;;;3.30;92.60;;;;;;5028667;28;20016;-75
2023/04/04 02:01:48;;;;;;;5.67;3.23;;;3.30;92.70;;;;;;5028638;28;20053;-75
2023/04/04 02:04:14;;;;;;;5.47;2.60;;;3.30;92.80;;;;;;5031829;28;20068;-75
2023/04/04 02:06:40;;;;;;;3.97;2.40;;;3.30;92.90;;;;;;5033570;28;20067;-75
2023/04/04 02:09:05;;;;;;;6.73;3.03;;;3.30;92.90;;;;;;5034153;28;20096;-75
2023/04/04 02:11:32;;;;;;;5.47;3.03;;;3.20;93.10;;;;;;5032302;28;20049;-75
2023/04/04 02:13:57;;;;;;;6.77;3.03;;;3.20;93.30;;;;;;5034893;28;20032;-75
2023/04/04 02:16:23;;;;;;;7.07;3.50;;;3.20;93.40;;;;;;5033022;28;20029;-75
2023/04/04 02:18:48;;;;;;;7.27;3.17;;;3.20;93.70;;;;;;5033844;28;20024;-75
2023/04/04 02:21:14;;;;;;;5.97;3.30;;;3.20;93.70;;;;;;5034728;28;20044;-75
2023/04/04 02:23:40;;;;;;;6.10;3.00;;;3.10;93.80;;;;;;5034566;28;20048;-75
2023/04/04 02:26:05;;;;;;;9.67;2.97;;;3.10;93.90;;;;;;5032771;28;20506;-75
2023/04/04 02:28:31;;;;;;;5.27;2.90;;;3.10;93.90;;;;;;5034143;28;20021;-75
2023/04/04 02:31:03;;;;;;;5.17;3.27;;;3.10;94.00;;;;;;5044420;28;20090;-75
2023/04/04 02:33:30;;;;;;;5.33;2.90;;;3.10;94.10;;;;;;5048431;28;20021;-75
2023/04/04 02:35:57;;;;;;;11.27;3.87;;;3.00;94.10;;;;;;5033415;28;20421;-75
2023/04/04 02:38:24;;;;;;;4.40;2.80;;;3.00;94.20;;;;;;5032251;28;20021;-75
2023/04/04 02:40:50;;;;;;;7.90;3.20;;;3.00;94.20;;;;;;5033578;28;20096;-75
2023/04/04 02:43:15;;;;;;;7.60;2.70;;;2.90;94.40;;;;;;5034454;28;20109;-75
2023/04/04 02:45:41;;;;;;;4.40;2.80;;;2.90;94.50;;;;;;5033310;28;20025;-75
2023/04/04 02:48:06;;;;;;;7.23;3.27;;;2.90;94.60;;;;;;5033070;28;20474;-75
2023/04/04 02:50:32;;;;;;;8.20;3.37;;;2.90;94.80;;;;;;5033724;28;20052;-75
2023/04/04 02:53:00;;;;;;;4.40;3.40;;;2.90;95.00;;;;;;5032830;28;20025;-75
2023/04/04 02:55:25;;;;;;;6.80;3.60;;;2.90;95.20;;;;;;5032782;28;20021;-76
2023/04/04 02:57:53;;;;;;;6.13;3.70;;;2.90;95.20;;;;;;5031480;28;20022;-75
2023/04/04 03:00:19;;;;;;;8.07;3.20;;;2.90;95.30;;;;;;5033464;28;20021;-75
2023/04/04 03:02:45;;;;;;;10.20;5.33;;;2.80;95.40;;;;;;5033850;28;20048;-75
2023/04/04 03:05:11;;;;;;;6.07;3.77;;;2.80;95.50;;;;;;5032567;28;20022;-75
2023/04/04 03:07:37;;;;;;;7.23;3.27;;;2.80;95.60;;;;;;5031598;28;20521;-75
2023/04/04 03:10:02;;;;;;;8.43;2.70;;;2.80;95.70;;;;;;5033572;28;20021;-75
2023/04/04 03:12:28;;;;;;;6.47;3.03;;;2.80;95.80;;;;;;5033658;28;20040;-75
2023/04/04 03:14:53;;;;;;;4.60;2.90;;;2.70;95.90;;;;;;5032338;28;20036;-75
2023/04/04 03:17:19;;;;;;;9.33;2.83;;;2.80;95.90;;;;;;5032574;28;20031;-75
2023/04/04 03:19:45;;;;;;;7.70;2.83;;;2.70;95.90;;;;;;5031325;28;20048;-75
2023/04/04 03:22:10;;;;;;;7.37;3.07;;;2.70;95.90;;;;;;5034253;28;20474;-75
2023/04/04 03:24:36;;;;;;;7.73;2.47;;;2.70;96.00;;;;;;5032095;28;20028;-75
2023/04/04 03:27:02;;;;;;;5.50;2.87;;;2.60;96.00;;;;;;5035158;28;20029;-75
2023/04/04 03:29:27;;;;;;;6.57;3.03;;;2.60;96.10;;;;;;5033016;28;20029;-76
2023/04/04 03:31:53;;;;;;;8.30;3.37;;;2.60;96.20;;;;;;5046828;28;20469;-75
2023/04/04 03:34:19;;;;;;;4.57;2.90;;;2.60;96.30;;;;;;5042465;28;20466;-75
2023/04/04 03:36:48;;;;;;;3.80;3.20;;;2.60;96.40;;;;;;5044235;28;20021;-75
2023/04/04 03:39:13;;;;;;;8.20;2.57;;;2.60;96.40;;;;;;5049919;28;20093;-75
2023/04/04 03:41:39;;;;;;;5.17;2.43;;;2.60;96.40;;;;;;5051049;28;20473;-75
2023/04/04 03:44:05;;;;;;;4.40;2.67;;;2.60;96.30;;;;;;5040513;28;20375;-75
2023/04/04 03:46:30;;;;;;;7.43;2.97;;;2.60;96.30;;;;;;5031917;28;20025;-75
2023/04/04 03:48:56;;;;;;;4.67;2.73;;;2.60;96.30;;;;;;5030627;28;20422;-75
2023/04/04 03:51:26;;;;;;;6.13;3.07;;;2.50;96.40;;;;;;5030633;28;20394;-76
2023/04/04 03:53:52;;;;;;;6.70;2.93;;;2.50;96.50;;;;;;5030600;28;20175;-76
2023/04/04 03:56:18;;;;;;;8.77;2.80;;;2.50;96.50;;;;;;5030399;28;20530;-75
2023/04/04 03:58:44;;;;;;;5.33;3.03;;;2.40;96.60;;;;;;5030796;28;20022;-75
2023/04/04 04:01:10;;;;;;;8.33;3.57;;;2.40;96.60;;;;;;5031676;28;20060;-76
2023/04/04 04:03:36;;;;;;;4.97;2.70;;;2.30;96.70;;;;;;5031234;28;20123;-76
2023/04/04 04:06:02;;;;;;;6.17;2.90;;;2.30;96.70;;;;;;5033068;28;20041;-76
2023/04/04 04:08:27;;;;;;;6.87;2.63;;;2.30;96.70;;;;;;5032115;28;20021;-76
2023/04/04 04:10:53;;;;;;;8.20;3.63;;;2.20;96.70;;;;;;5033264;28;20026;-75
2023/04/04 04:13:19;;;;;;;7.27;3.53;;;2.20;96.90;;;;;;5032397;28;20021;-75
2023/04/04 04:15:45;;;;;;;10.43;3.97;;;2.10;97.10;;;;;;5032557;28;20025;-76
2023/04/04 04:18:10;;;;;;;5.10;3.10;;;2.10;97.30;;;;;;5031152;28;20028;-76
2023/04/04 04:20:36;;;;;;;6.17;3.47;;;2.10;97.30;;;;;;5031833;28;20029;-76
2023/04/04 04:23:01;;;;;;;4.63;3.87;;;2.10;97.40;;;;;;5031924;28;20025;-76
2023/04/04 04:25:27;;;;;;;5.90;2.90;;;2.10;97.40;;;;;;5032028;28;20036;-75
2023/04/04 04:27:56;;;;;;;9.13;3.33;;;2.00;97.40;;;;;;5031650;28;20033;-75
2023/04/04 04:30:22;;;;;;;6.80;3.23;;;2.00;97.60;;;;;;5037595;28;20021;-76
2023/04/04 04:32:49;;;;;;;5.97;3.37;;;2.00;97.60;;;;;;5050949;28;20017;-76
2023/04/04 04:35:15;;;;;;;6.67;2.97;;;2.00;97.70;;;;;;5049483;28;20025;-75
2023/04/04 04:37:40;;;;;;;6.57;3.23;;;1.90;97.70;;;;;;5042635;28;20040;-76
2023/04/04 04:40:06;;;;;;;5.00;2.73;;;1.90;97.80;;;;;;5050357;28;20021;-78
2023/04/04 04:42:32;;;;;;;6.77;3.93;;;1.90;97.80;;;;;;5050626;28;20021;-78
2023/04/04 04:44:57;;;;;;;8.43;3.30;;;2.00;98.00;;;;;;5048920;28;20504;-78
2023/04/04 04:47:23;;;;;;;6.07;3.03;;;1.80;98.00;;;;;;5049842;28;20029;-78
2023/04/04 04:49:49;;;;;;;5.63;3.20;;;1.80;98.00;;;;;;5048763;28;20032;-78
2023/04/04 04:52:14;;;;;;;8.70;3.40;;;1.70;98.10;;;;;;5048900;28;20454;-76
2023/04/04 04:54:42;;;;;;;7.67;3.37;;;1.70;98.20;;;;;;5044330;28;20028;-75
2023/04/04 04:57:08;;;;;;;6.77;3.60;;;1.70;98.30;;;;;;5025667;28;20105;-76
2023/04/04 04:59:33;;;;;;;6.23;4.03;;;1.70;98.40;;;;;;5041830;28;20439;-76
2023/04/04 05:01:59;;;;;;;5.13;3.03;;;1.60;98.50;;;;;;5037817;28;20060;-76
2023/04/04 05:04:26;;;;;;;6.53;3.23;;;1.50;98.60;;;;;;5041736;28;20017;-75
2023/04/04 05:06:52;;;;;;;7.20;3.23;;;1.50;98.70;;;;;;5036178;28;20060;-76
2023/04/04 05:09:18;;;;;;;4.73;3.10;;;1.50;98.80;;;;;;5036046;28;20122;-76
2023/04/04 05:11:43;;;;;;;9.93;3.90;;;1.50;99.00;;;;;;5037021;28;20112;-76
2023/04/04 05:14:09;;;;;;;8.27;3.30;;;1.40;99.10;;;;;;5043077;28;20096;-76
2023/04/04 05:16:35;;;;;;;7.03;3.40;;;1.40;99.20;;;;;;5037819;28;20022;-76
2023/04/04 05:19:00;;;;;;;10.57;3.43;;;1.40;99.30;;;;;;5046675;28;20359;-76
2023/04/04 05:21:26;;;;;;;9.33;3.20;;;1.40;99.50;;;;;;5044636;28;20478;-76
2023/04/04 05:23:52;;;;;;;4.43;3.37;;;1.40;99.60;;;;;;5039075;28;20450;-72
2023/04/04 05:26:18;;;;;;;8.63;2.83;;;1.50;99.70;;;;;;5029410;28;20050;-71
2023/04/04 05:28:43;;;;;;;6.43;3.30;;;1.40;99.80;;;;;;5033983;28;20039;-71
2023/04/04 05:31:09;;;;;;;12.07;3.33;;;1.40;99.90;;;;;;5049008;28;20052;-71
2023/04/04 05:33:34;;;;;;;7.67;3.47;;;1.50;99.90;;;;;;5049219;28;20067;-71
2023/04/04 05:36:00;;;;;;;7.47;3.93;;;1.50;99.90;;;;;;5032716;28;20085;-71
2023/04/04 05:38:26;;;;;;;5.40;3.53;;;1.50;99.90;;;;;;5048156;28;20028;-71
2023/04/04 05:40:54;;;;;;;6.53;3.47;;;1.50;99.90;;;;;;5041319;28;20105;-71
2023/04/04 05:43:20;;;;;;;9.23;4.17;;;1.60;99.90;;;;;;5049020;28;20022;-70
2023/04/04 05:45:45;;;;;;;9.83;3.93;;;1.50;99.90;;;;;;5049818;28;20051;-71
2023/04/04 05:48:11;;;;;;;5.60;3.20;;;1.50;99.90;;;;;;5049881;28;20032;-71
2023/04/04 05:50:36;;;;;;;8.60;3.70;;;1.50;99.90;;;;;;5048717;28;20474;-71
2023/04/04 05:53:03;;;;;;;6.40;3.83;;;1.50;99.90;;;;;;5047552;28;20035;-71
2023/04/04 05:55:29;;;;;;;5.77;3.47;;;1.50;99.90;;;;;;5040677;28;20056;-72
2023/04/04 05:57:55;;;;;;;6.63;3.57;;;1.60;99.90;;;;;;5041486;28;20021;-71
2023/04/04 06:00:21;;;;;;;6.77;3.13;;;1.60;99.90;;;;;;5028359;28;20155;-71
2023/04/04 06:02:47;;;;;;;5.43;3.37;;;1.60;99.90;;;;;;5030415;28;20150;-71
2023/04/04 06:05:13;;;;;;;7.93;3.30;;;1.60;99.90;;;;;;5043097;28;20029;-71
2023/04/04 06:07:38;;;;;;;6.87;4.00;;;1.70;99.90;;;;;;5043653;28;20142;-71
2023/04/04 06:10:04;;;;;;;8.83;3.60;;;1.70;99.90;;;;;;5049321;28;20017;-71
2023/04/04 06:12:30;;;;;;;7.93;3.70;;;1.70;99.90;;;;;;5049757;28;20144;-71
2023/04/04 06:14:56;;;;;;;4.80;3.30;;;1.80;99.90;;;;;;5048766;28;20112;-71
2023/04/04 06:17:22;;;;;;;4.73;3.13;;;1.80;99.90;;;;;;5049314;28;20538;-71
2023/04/04 06:19:48;;;;;;;6.07;3.90;;;1.90;99.90;;;;;;5035788;28;20025;-71
2023/04/04 06:22:14;;;;;;;4.17;3.33;;;2.00;99.90;;;;;;5049004;28;20382;-71
2023/04/04 06:24:40;;;;;;;6.60;3.50;;;2.10;99.90;;;;;;5048000;28;20494;-71
2023/04/04 06:27:05;;;;;;;5.80;3.67;;;2.10;99.90;;;;;;5049619;28;20025;-72
2023/04/04 06:29:32;;;;;;;8.97;4.43;;;2.20;99.90;;;;;;5048471;28;20074;-71
2023/04/04 06:31:58;;;;;;;8.23;4.23;;;2.30;99.90;;;;;;5043718;28;20021;-72
2023/04/04 06:34:23;;;;;;;8.10;3.80;;;2.30;99.90;;;;;;5029235;28;20022;-71
2023/04/04 06:36:49;;;;;;;9.13;3.77;;;2.40;99.90;;;;;;5034933;28;20152;-72
2023/04/04 06:39:15;;;;;;;9.13;4.13;;;2.50;99.90;;;;;;5037330;28;20034;-72
2023/04/04 06:41:40;;;;;;;5.20;2.90;;;2.60;99.90;;;;;;5028893;28;20042;-72
2023/04/04 06:44:06;;;;;;;12.13;3.27;;;2.70;99.90;;;;;;5030013;28;20026;-72
2023/04/04 06:46:32;;;;;;;8.93;4.17;;;2.90;99.90;;;;;;5029506;28;20037;-72
2023/04/04 06:48:58;;;;;;;6.17;2.87;;;3.00;99.90;;;;;;5030179;28;20033;-72
2023/04/04 06:51:24;;;;;;;7.63;3.00;;;3.20;99.90;;;;;;5032315;28;20033;-72
2023/04/04 06:53:49;;;;;;;8.73;3.57;;;3.30;99.90;;;;;;5033578;28;20060;-72
2023/04/04 06:56:15;;;;;;;7.33;4.23;;;3.30;99.90;;;;;;5033141;28;20026;-72
2023/04/04 06:58:41;;;;;;;7.20;3.37;;;3.50;99.90;;;;;;5032190;28;20021;-72
2023/04/04 07:01:07;;;;;;;4.93;3.50;;;3.60;99.90;;;;;;5031859;28;20511;-72
2023/04/04 07:03:33;;;;;;;7.27;3.97;;;3.70;99.90;;;;;;5031341;28;20029;-72
2023/04/04 07:06:02;;;;;;;6.03;3.30;;;3.80;99.90;;;;;;5038759;28;20021;-73
2023/04/04 07:08:29;;;;;;;6.73;3.83;;;3.90;99.90;;;;;;5039304;28;20132;-73
2023/04/04 07:10:55;;;;;;;7.87;3.27;;;4.00;99.90;;;;;;5039543;28;20025;-72
2023/04/04 07:13:22;;;;;;;8.33;3.40;;;4.10;99.90;;;;;;5027555;28;20033;-72
2023/04/04 07:15:48;;;;;;;10.00;3.80;;;4.20;99.90;;;;;;5047996;28;20017;-73
2023/04/04 07:18:15;;;;;;;6.33;3.30;;;4.30;99.80;;;;;;5037957;28;20489;-73
2023/04/04 07:20:42;;;;;;;5.77;2.87;;;4.40;99.70;;;;;;5038193;28;20116;-72
2023/04/04 07:23:09;;;;;;;9.03;3.43;;;4.50;99.20;;;;;;5036426;28;20060;-73
2023/04/04 07:25:34;;;;;;;6.03;3.20;;;4.50;99.00;;;;;;5037813;28;20021;-72
2023/04/04 07:28:00;;;;;;;5.43;2.47;;;4.60;99.00;;;;;;5036670;28;20031;-72
2023/04/04 07:30:28;;;;;;;4.90;3.10;;;4.70;98.80;;;;;;5037100;28;20041;-72
2023/04/04 07:32:58;;;;;;;7.07;3.10;;;4.80;98.00;;;;;;5044830;28;20082;-72
2023/04/04 07:35:24;;;;;;;6.73;2.97;;;4.80;97.40;;;;;;5032272;28;20072;-72
2023/04/04 07:37:49;;;;;;;5.47;3.23;;;4.90;97.10;;;;;;5034138;28;20061;-72
2023/04/04 07:40:15;;;;;;;7.70;3.07;;;5.00;97.30;;;;;;5045336;28;20051;-72
2023/04/04 07:42:45;;;;;;;8.73;4.07;;;5.10;97.30;;;;;;5040282;28;20468;-72
2023/04/04 07:45:11;;;;;;;3.57;2.87;;;5.20;97.30;;;;;;5042722;28;20025;-72
2023/04/04 07:47:41;;;;;;;6.37;3.30;;;5.30;97.40;;;;;;5030712;28;20075;-72
2023/04/04 07:50:06;;;;;;;6.90;3.00;;;5.30;97.30;;;;;;5050410;28;20096;-72
2023/04/04 07:52:32;;;;;;;5.37;2.93;;;5.40;97.30;;;;;;5022602;28;20110;-72
2023/04/04 07:54:59;;;;;;;6.67;2.77;;;5.50;97.10;;;;;;5036327;28;20043;-72
2023/04/04 07:57:25;;;;;;;7.67;3.70;;;5.60;97.00;;;;;;5027437;28;20033;-72
2023/04/04 07:59:50;;;;;;;6.77;2.90;;;5.70;96.70;;;;;;5029229;28;20037;-72
2023/04/04 08:02:16;;;;;;;4.87;2.87;;;5.70;96.40;;;;;;5021445;28;20112;-73
2023/04/04 08:04:41;;;;;;;5.93;2.93;;;5.80;96.10;;;;;;5046133;28;20071;-73
2023/04/04 08:07:07;;;;;;;7.07;3.43;;;5.90;95.90;;;;;;5041653;28;20057;-73
2023/04/04 08:09:35;;;;;;;5.60;2.57;;;6.00;95.60;;;;;;5046113;28;20104;-72
2023/04/04 08:12:01;;;;;;;8.80;3.70;;;6.10;95.60;;;;;;5041666;28;20049;-73
2023/04/04 08:14:27;;;;;;;5.93;2.90;;;6.20;95.40;;;;;;5046201;28;20023;-73
2023/04/04 08:16:53;;;;;;;5.80;2.60;;;6.30;95.10;;;;;;5040859;28;20024;-73
2023/04/04 08:19:19;;;;;;;5.00;2.93;;;6.30;94.60;;;;;;5035979;28;20021;-73
2023/04/04 08:21:45;;;;;;;8.13;2.97;;;6.40;93.90;;;;;;5036694;28;20044;-73
2023/04/04 08:24:11;;;;;;;6.20;2.80;;;6.50;93.60;;;;;;5043690;28;20092;-73
2023/04/04 08:26:37;;;;;;;7.10;3.73;;;6.50;93.60;;;;;;5038621;28;20052;-73
2023/04/04 08:29:02;;;;;;;4.50;2.53;;;6.60;93.20;;;;;;5040741;28;20424;-73
2023/04/04 08:31:28;;;;;;;6.83;2.43;;;6.70;92.80;;;;;;5041893;28;20029;-73
2023/04/04 08:33:55;;;;;;;6.40;2.93;;;6.70;92.80;;;;;;5033363;28;20371;-73
2023/04/04 08:36:21;;;;;;;7.10;2.57;;;6.80;91.80;;;;;;5031470;28;20029;-73
2023/04/04 08:38:47;;;;;;;3.83;3.13;;;6.80;91.40;;;;;;5045634;28;20056;-73
2023/04/04 08:41:14;;;;;;;5.53;2.70;;;6.90;91.40;;;;;;5034252;28;20390;-73
2023/04/04 08:43:42;;;;;;;4.73;2.87;;;6.90;91.30;;;;;;5045066;28;20099;-73
2023/04/04 08:46:10;;;;;;;5.77;2.83;;;7.00;91.20;;;;;;5035613;28;20749;-73
2023/04/04 08:48:38;;;;;;;4.53;3.20;;;7.00;90.90;;;;;;5044656;28;20036;-73
2023/04/04 08:51:04;;;;;;;7.63;3.17;;;7.10;90.70;;;;;;5040780;28;20090;-73
2023/04/04 08:53:31;;;;;;;8.40;3.07;;;7.20;90.40;;;;;;5040237;28;20614;-73
2023/04/04 08:55:59;;;;;;;3.30;2.50;;;7.20;90.30;;;;;;5038867;28;20086;-72
2023/04/04 08:58:25;;;;;;;5.37;2.90;;;7.30;90.30;;;;;;5038127;28;20442;-72
2023/04/04 09:00:55;;;;;;;5.83;2.40;;;7.30;90.00;;;;;;5040586;28;20044;-72
2023/04/04 09:03:25;;;;;;;4.93;2.50;;;7.40;89.50;;;;;;5038115;28;20041;-73
2023/04/04 09:05:52;;;;;;;5.33;2.10;;;7.50;88.90;;;;;;5034249;28;20087;-73
2023/04/04 09:08:18;;;;;;;5.83;2.23;;;7.50;88.10;;;;;;5034291;28;20474;-73
2023/04/04 09:10:44;;;;;;;6.20;2.17;;;7.60;87.60;;;;;;5041930;28;20036;-73
2023/04/04 09:13:10;;;;;;;7.80;2.27;;;7.60;86.80;;;;;;5045369;28;20090;-72
2023/04/04 09:15:42;;;;;;;5.20;2.53;;;7.70;86.80;;;;;;5037796;28;20036;-73
2023/04/04 09:18:08;;;;;;;6.10;2.50;;;7.70;85.60;;;;;;5033716;28;20021;-73
2023/04/04 09:20:37;;;;;;;5.03;2.57;;;7.80;86.00;;;;;;5041153;28;20028;-72
2023/04/04 09:23:06;;;;;;;5.80;2.73;;;7.90;85.40;;;;;;5027870;28;20487;-72
2023/04/04 09:25:32;;;;;;;3.57;2.47;;;7.90;85.00;;;;;;5028047;28;20033;-72
2023/04/04 09:27:58;;;;;;;6.67;2.60;;;7.90;85.10;;;;;;5035206;28;20029;-73
2023/04/04 09:30:24;;;;;;;5.50;2.20;;;8.00;83.40;;;;;;5035784;28;20044;-72
2023/04/04 09:32:50;;;;;;;5.33;2.60;;;8.00;81.90;;;;;;5035535;28;20029;-72
2023/04/04 09:35:15;;;;;;;5.83;2.00;;;8.10;81.70;;;;;;5036851;28;20025;-72
2023/04/04 09:37:42;;;;;;;8.00;2.37;;;8.10;82.00;;;;;;5029412;28;20467;-73
2023/04/04 09:40:12;;;;;;;6.83;2.20;;;8.20;81.60;;;;;;5029678;28;20022;-72
2023/04/04 09:42:38;;;;;;;7.00;2.73;;;8.20;81.50;;;;;;5027907;28;20034;-73
2023/04/04 09:45:05;;;;;;;4.40;2.53;;;8.30;81.10;;;;;;5027862;28;20021;-73
2023/04/04 09:47:32;;;;;;;7.87;2.90;;;8.30;80.60;;;;;;5034405;28;20121;-72
2023/04/04 09:50:02;;;;;;;11.67;3.20;;;8.30;79.70;;;;;;5036372;28;20056;-73
2023/04/04 09:52:32;;;;;;;7.13;3.63;;;8.30;79.80;;;;;;5036027;28;20080;-73
2023/04/04 09:55:00;;;;;;;5.50;2.10;;;8.40;78.40;;;;;;5037803;28;20033;-73
2023/04/04 09:57:28;;;;;;;4.37;2.27;;;8.40;79.30;;;;;;5032908;28;20083;-74
2023/04/04 10:00:08;;;;;;;5.13;2.40;;;8.50;78.70;;;;;;5037559;28;20051;-73
2023/04/04 10:02:36;;;;;;;4.27;2.20;;;8.60;78.20;;;;;;5031242;28;20041;-72
2023/04/04 10:05:09;;;;;;;7.70;2.03;;;8.60;78.50;;;;;;5031089;28;20026;-72
2023/04/04 10:07:38;;;;;;;5.63;2.53;;;8.60;78.20;;;;;;5036446;28;20446;-73
2023/04/04 10:10:05;;;;;;;6.00;2.43;;;8.70;78.20;;;;;;5030140;28;20080;-73
2023/04/04 10:12:31;;;;;;;8.73;3.13;;;8.70;77.20;;;;;;5038776;28;20023;-72
2023/04/04 10:15:01;;;;;;;7.33;2.57;;;8.70;77.70;;;;;;5038946;28;20018;-72
2023/04/04 10:17:40;;;;;;;5.70;2.80;;;8.80;76.90;;;;;;5046204;28;20025;-73
2023/04/04 10:20:07;;;;;;;6.23;2.67;;;8.80;77.10;;;;;;5043868;28;20127;-73
2023/04/04 10:22:35;;;;;;;5.33;2.73;;;8.90;76.40;;;;;;5046206;28;20028;-73
2023/04/04 10:25:01;;;;;;;6.50;2.53;;;8.80;75.10;;;;;;5045335;28;20024;-72
2023/04/04 10:27:27;;;;;;;5.93;3.03;;;8.80;75.90;;;;;;5029134;28;20414;-72
2023/04/04 10:29:53;;;;;;;4.17;3.03;;;8.80;75.80;;;;;;5035213;28;20029;-73
2023/04/04 10:32:38;;;;;;;4.30;2.47;;;8.90;75.50;;;;;;5037980;28;20029;-73
2023/04/04 10:35:11;;;;;;;5.70;2.50;;;8.90;75.30;;;;;;5050697;28;20508;-73
2023/04/04 10:37:42;;;;;;;6.60;2.20;;;9.00;75.90;;;;;;5051246;28;20056;-71
2023/04/04 10:40:16;;;;;;;5.17;3.30;;;9.00;75.40;;;;;;5050898;28;20128;-72
2023/04/04 10:42:44;;;;;;;4.57;2.53;;;9.00;75.60;;;;;;5051951;28;20668;-72
2023/04/04 10:45:13;;;;;;;7.00;2.87;;;9.10;75.70;;;;;;5052658;28;20485;-71
2023/04/04 10:47:41;;;;;;;7.30;3.20;;;9.10;75.90;;;;;;5049884;28;20033;-72
2023/04/04 10:50:09;;;;;;;4.13;2.83;;;9.10;76.10;;;;;;5051902;28;20519;-72
2023/04/04 10:52:37;;;;;;;4.53;2.53;;;9.10;75.30;;;;;;5051217;28;20072;-71
2023/04/04 10:55:06;;;;;;;4.17;2.57;;;9.10;75.90;;;;;;5051873;28;20024;-71
2023/04/04 10:57:38;;;;;;;4.87;2.37;;;9.20;76.00;;;;;;5052064;28;20107;-71
2023/04/04 11:00:12;;;;;;;6.00;2.83;;;9.30;76.30;;;;;;5052919;28;20025;-71
2023/04/04 11:03:01;;;;;;;5.53;2.75;;;9.30;76.00;;;;;;5030724;28;20049;-72
2023/04/04 11:05:39;;;;;;;5.40;2.77;;;9.30;75.70;;;;;;5045284;28;20037;-72
2023/04/04 11:08:09;;;;;;;5.43;2.70;;;9.20;76.00;;;;;;5051949;28;20020;-71
2023/04/04 11:10:38;;;;;;;5.30;2.97;;;9.20;76.40;;;;;;5036801;28;20092;-71
2023/04/04 11:13:23;;;;;;;5.13;2.03;;;9.30;76.50;;;;;;5040950;28;20025;-71
2023/04/04 11:15:59;;;;;;;5.20;2.80;;;9.30;76.10;;;;;;5032660;28;20113;-71
2023/04/04 11:18:31;;;;;;;6.27;3.90;;;9.30;76.30;;;;;;5038594;28;20013;-71
2023/04/04 11:21:05;;;;;;;6.23;3.20;;;9.30;75.80;;;;;;5047453;28;20021;-72
2023/04/04 11:23:54;;;;;;;;;;;9.30;75.30;;;;;;5038979;28;20013;-71
2023/04/04 11:26:28;;;;;;;5.77;3.20;;;9.30;75.40;;;;;;5036543;28;20453;-71
2023/04/04 11:28:59;;;;;;;5.63;2.73;;;9.30;75.60;;;;;;5048714;28;20029;-71
2023/04/04 11:31:28;;;;;;;5.73;3.17;;;9.20;75.80;;;;;;5046047;28;20028;-71
2023/04/04 11:34:03;;;;;;;4.57;3.00;;;9.30;76.20;;;;;;5041113;28;20022;-71
2023/04/04 11:36:35;;;;;;;5.60;2.80;;;9.30;76.40;;;;;;5033005;28;20120;-71
2023/04/04 11:39:13;;;;;;;4.90;2.90;;;9.30;76.00;;;;;;5029668;28;20029;-71
2023/04/04 11:42:03;;;;;;;5.67;2.90;;;9.20;75.10;;;;;;5034858;28;20017;-71
2023/04/04 11:44:30;;;;;;;4.80;2.63;;;9.20;75.40;;;;;;5039449;28;20255;-71
2023/04/04 11:47:09;;;;;;;5.00;3.13;;;9.10;75.50;;;;;;5046415;28;20048;-71
2023/04/04 11:49:40;;;;;;;5.80;3.07;;;9.20;75.30;;;;;;5042566;28;20029;-71
2023/04/04 11:52:08;;;;;;;5.97;3.17;;;9.30;75.90;;;;;;5043977;28;20094;-71
2023/04/04 11:54:36;;;;;;;4.90;3.17;;;9.30;76.00;;;;;;5044653;28;20434;-71
2023/04/04 11:57:02;;;;;;;6.53;2.87;;;9.30;75.70;;;;;;5041122;28;20112;-71
2023/04/04 11:59:29;;;;;;;6.77;2.67;;;9.30;75.60;;;;;;5038529;28;20064;-71
2023/04/04 12:01:55;;;;;;;7.00;3.43;;;9.30;75.40;;;;;;5025727;28;20065;-71
2023/04/04 12:04:21;;;;;;;5.57;2.77;;;9.30;75.20;;;;;;5034588;28;20029;-70
2023/04/04 12:06:52;;;;;;;7.03;3.47;;;9.40;75.20;;;;;;5040094;28;20385;-71
2023/04/04 12:09:19;;;;;;;9.00;3.13;;;9.30;75.20;;;;;;5048187;28;20029;-70
2023/04/04 12:11:45;;;;;;;7.33;3.40;;;9.40;75.60;;;;;;5047450;28;20021;-70
2023/04/04 12:14:16;;;;;;;6.00;3.50;;;9.40;75.50;;;;;;5048495;28;20501;-69
2023/04/04 12:16:42;;;;;;;7.83;2.97;;;9.40;75.20;;;;;;5046556;28;20064;-70
2023/04/04 12:19:08;;;;;;;8.73;4.00;;;9.50;75.10;;;;;;5038540;28;20025;-72
2023/04/04 12:21:34;;;;;;;8.30;3.83;;;9.50;74.10;;;;;;5042163;28;20072;-71
2023/04/04 12:23:59;;;;;;;5.60;2.87;;;9.40;74.20;;;;;;5029113;28;20025;-72
2023/04/04 12:26:28;;;;;;;4.53;2.83;;;9.50;74.70;;;;;;5031831;28;20061;-72
2023/04/04 12:28:56;;;;;;;6.87;3.20;;;9.50;74.90;;;;;;5023727;28;20078;-71
2023/04/04 12:31:26;;;;;;;5.07;2.50;;;9.60;74.90;;;;;;5050196;28;20021;-72
2023/04/04 12:33:52;;;;;;;6.77;3.40;;;9.60;75.30;;;;;;5037550;28;20059;-71
2023/04/04 12:36:17;;;;;;;4.60;2.23;;;9.70;74.90;;;;;;5030707;28;20240;-72
2023/04/04 12:39:05;;;;;;;6.17;2.63;;;9.80;74.50;;;;;;5028315;28;20509;-72
2023/04/04 12:41:32;;;;;;;6.27;2.83;;;9.80;74.10;;;;;;5029231;28;20032;-71
2023/04/04 12:44:01;;;;;;;6.00;2.97;;;9.80;74.00;;;;;;5038894;28;20074;-72
2023/04/04 12:46:33;;;;;;;5.93;2.92;;;9.80;74.20;;;;;;5033881;28;20053;-71
2023/04/04 12:48:59;;;;;;;5.30;2.70;;;9.90;74.30;;;;;;5040165;28;20033;-71
2023/04/04 12:51:31;;;;;;;6.38;2.97;;;9.90;73.80;;;;;;5042243;28;20025;-71
2023/04/04 12:53:58;;;;;;;6.30;2.85;;;9.90;73.60;;;;;;5039313;28;20486;-71
2023/04/04 12:56:27;;;;;;;7.07;2.93;;;9.90;73.70;;;;;;5037165;28;20021;-71
2023/04/04 12:58:58;;;;;;;5.50;2.90;;;9.90;73.80;;;;;;5044118;28;20159;-71